Time;durP1;ratioP1;P1;durP2;ratioP2;P2;SDS_P1;SDS_P2;PMS_P1;PMS_P2;Temp;Humidity;BMP_temperature;BMP_pressure;BME280_temperature;BME280_humidity;BME280_pressure;Samples;Min_cycle;Max_cycle;Signal;HPM_P1;HPM_P2
2022/11/27 00:01:52;;;;;;;8.52;4.45;;;;;;;3.03;56.55;96533.84;5040134;28;20220;-75
2022/11/27 00:04:18;;;;;;;10.60;5.47;;;;;;;3.32;51.57;96532.69;5037842;28;20082;-75
2022/11/27 00:06:43;;;;;;;10.25;5.60;;;;;;;3.26;51.73;96526.06;5040165;28;20097;-75
2022/11/27 00:09:14;;;;;;;9.88;5.45;;;;;;;3.43;49.79;96527.50;5038806;28;20116;-75
2022/11/27 00:11:39;;;;;;;10.50;4.60;;;;;;;3.41;53.02;96522.34;5023170;28;20082;-74
2022/11/27 00:14:05;;;;;;;8.10;4.88;;;;;;;3.51;52.15;96521.72;5022476;28;20113;-75
2022/11/27 00:16:30;;;;;;;10.70;5.65;;;;;;;3.91;49.91;96502.97;5039041;28;20066;-75
2022/11/27 00:18:55;;;;;;;11.43;5.80;;;;;;;3.69;51.29;96509.00;5042114;28;20120;-75
2022/11/27 00:21:23;;;;;;;10.40;5.75;;;;;;;3.40;50.46;96515.41;5039848;28;20113;-75
2022/11/27 00:23:49;;;;;;;10.15;5.57;;;;;;;3.66;51.52;96517.97;5038538;28;20082;-75
2022/11/27 00:26:14;;;;;;;14.60;5.90;;;;;;;3.23;54.25;96513.16;5030993;28;20109;-75
2022/11/27 00:28:40;;;;;;;13.07;6.18;;;;;;;3.66;50.67;96510.06;5038892;28;20517;-75
2022/11/27 00:31:16;;;;;;;12.07;6.32;;;;;;;3.41;51.42;96511.81;5011265;28;20543;-75
2022/11/27 00:33:42;;;;;;;12.98;5.57;;;;;;;3.54;51.84;96509.16;5023487;28;20124;-75
2022/11/27 00:36:08;;;;;;;10.77;5.65;;;;;;;3.65;49.99;96510.19;5039367;28;20078;-75
2022/11/27 00:38:33;;;;;;;7.40;4.82;;;;;;;3.55;50.56;96504.75;5039889;28;20118;-75
2022/11/27 00:41:16;;;;;;;11.23;5.88;;;;;;;3.57;51.68;96508.09;5021909;28;20469;-75
2022/11/27 00:43:41;;;;;;;10.35;5.82;;;;;;;3.42;51.36;96502.13;5040795;28;20515;-75
2022/11/27 00:46:07;;;;;;;9.60;5.47;;;;;;;3.22;55.19;96506.19;5020601;28;20101;-75
2022/11/27 00:48:32;;;;;;;12.02;6.32;;;;;;;3.30;50.96;96503.84;5038956;28;20116;-75
2022/11/27 00:51:02;;;;;;;13.45;5.43;;;;;;;3.35;50.33;96512.28;5036718;28;20603;-75
2022/11/27 00:53:28;;;;;;;10.95;6.53;;;;;;;3.21;52.55;96501.88;5038416;28;20097;-75
2022/11/27 00:55:54;;;;;;;11.10;6.68;;;;;;;3.23;51.21;96507.88;5015271;28;20669;-75
2022/11/27 00:58:20;;;;;;;9.70;5.65;;;;;;;2.81;53.00;96498.50;5022070;28;20101;-75
2022/11/27 01:00:45;;;;;;;10.65;5.68;;;;;;;3.05;51.37;96497.72;5038457;28;20074;-75
2022/11/27 01:03:11;;;;;;;9.43;5.85;;;;;;;2.90;53.18;96489.94;5038901;28;20086;-75
2022/11/27 01:05:36;;;;;;;11.48;5.65;;;;;;;3.04;55.07;96486.34;5038371;28;20147;-75
2022/11/27 01:08:02;;;;;;;11.85;5.88;;;;;;;2.74;55.29;96486.72;5038490;28;20484;-75
2022/11/27 01:10:28;;;;;;;16.02;6.63;;;;;;;3.11;51.77;96485.91;5023238;28;20109;-75
2022/11/27 01:12:53;;;;;;;13.00;6.75;;;;;;;3.21;51.01;96475.56;5042067;28;20584;-75
2022/11/27 01:15:19;;;;;;;10.77;5.95;;;;;;;3.11;52.19;96485.91;5042012;28;20082;-75
2022/11/27 01:17:44;;;;;;;9.82;5.60;;;;;;;3.03;52.33;96489.09;5041387;28;20097;-75
2022/11/27 01:20:10;;;;;;;12.70;7.40;;;;;;;3.30;51.03;96491.53;5044171;28;20080;-75
2022/11/27 01:22:35;;;;;;;13.93;6.97;;;;;;;3.34;50.19;96491.31;5043406;28;20139;-75
2022/11/27 01:25:01;;;;;;;14.45;6.53;;;;;;;3.32;51.73;96491.44;5025410;28;20505;-75
2022/11/27 01:27:26;;;;;;;13.10;6.57;;;;;;;3.18;51.14;96489.78;5043761;28;20078;-75
2022/11/27 01:29:51;;;;;;;11.15;6.18;;;;;;;3.47;50.21;96483.41;5042122;28;20159;-75
2022/11/27 01:32:17;;;;;;;12.95;6.70;;;;;;;3.44;49.51;96489.72;5025161;28;20355;-75
2022/11/27 01:34:42;;;;;;;13.93;7.35;;;;;;;3.22;51.04;96493.03;5041939;28;20477;-75
2022/11/27 01:37:07;;;;;;;15.55;7.95;;;;;;;2.95;50.65;96499.31;5043282;28;20105;-75
2022/11/27 01:39:33;;;;;;;14.80;7.72;;;;;;;2.96;52.34;96498.38;5043353;28;20129;-75
2022/11/27 01:41:58;;;;;;;15.25;7.03;;;;;;;2.73;52.58;96492.94;5042829;28;20109;-75
2022/11/27 01:44:24;;;;;;;14.60;7.53;;;;;;;3.20;50.82;96490.50;5042332;28;20537;-75
2022/11/27 01:46:54;;;;;;;14.93;7.45;;;;;;;3.36;50.53;96495.53;5043071;28;20570;-75
2022/11/27 01:49:37;;;;;;;9.52;6.03;;;;;;;3.06;51.15;96486.22;5041509;28;20104;-75
2022/11/27 01:52:06;;;;;;;13.30;7.53;;;;;;;2.97;53.22;96493.00;5024869;28;20097;-75
2022/11/27 01:54:41;;;;;;;14.32;8.32;;;;;;;3.44;51.97;96489.72;5040053;28;20542;-75
2022/11/27 01:57:23;;;;;;;17.05;8.40;;;;;;;3.47;52.48;96486.88;5041665;28;20195;-75
2022/11/27 01:59:48;;;;;;;14.02;7.97;;;;;;;3.22;51.27;96485.97;5026639;28;20097;-75
2022/11/27 02:02:13;;;;;;;17.95;8.52;;;;;;;3.40;51.21;96473.28;5024508;28;20481;-75
2022/11/27 02:04:39;;;;;;;11.75;7.18;;;;;;;3.00;51.19;96465.63;5041173;28;20089;-75
2022/11/27 02:07:04;;;;;;;13.60;8.13;;;;;;;2.98;50.34;96468.38;5041513;28;20073;-75
2022/11/27 02:09:30;;;;;;;14.77;7.63;;;;;;;3.21;50.54;96473.78;4997996;28;20093;-75
2022/11/27 02:12:13;;;;;;;16.55;7.15;;;;;;;3.40;50.98;96477.69;5025097;28;20189;-75
2022/11/27 02:14:49;;;;;;;13.38;7.72;;;;;;;3.02;51.78;96487.41;5042938;28;20112;-75
2022/11/27 02:17:34;;;;;;;12.40;6.53;;;;;;;3.12;51.66;96479.69;5040459;28;20104;-75
2022/11/27 02:20:21;;;;;;;16.70;9.43;;;;;;;3.28;48.81;96476.81;5041161;28;20168;-75
2022/11/27 02:23:05;;;;;;;19.60;10.18;;;;;;;3.29;50.98;96467.94;5041611;28;20466;-75
2022/11/27 02:25:49;;;;;;;18.23;10.68;;;;;;;3.41;50.07;96463.59;5042160;28;20178;-75
2022/11/27 02:28:28;;;;;;;13.30;8.35;;;;;;;3.22;51.15;96464.94;5042515;28;20081;-75
2022/11/27 02:30:59;;;;;;;;;;;;;;;3.00;53.91;96455.13;5041133;28;20130;-75
2022/11/27 02:33:24;;;;;;;11.98;7.28;;;;;;;2.76;57.47;96450.66;5039680;28;20012;-75
2022/11/27 02:36:05;;;;;;;17.98;8.00;;;;;;;3.25;51.64;96448.06;5012924;28;20078;-75
2022/11/27 02:38:38;;;;;;;11.85;7.70;;;;;;;2.98;52.09;96446.47;5025712;28;20547;-75
2022/11/27 02:41:11;;;;;;;13.30;9.00;;;;;;;3.35;49.90;96446.47;5023877;28;20115;-75
2022/11/27 02:43:42;;;;;;;15.23;9.45;;;;;;;3.52;49.26;96436.50;5024874;28;20107;-75
2022/11/27 02:46:08;;;;;;;13.65;9.05;;;;;;;3.52;49.55;96439.13;5022930;28;20108;-66
2022/11/27 02:48:37;;;;;;;13.73;7.82;;;;;;;3.45;50.29;96437.91;5018357;28;20081;-66
2022/11/27 02:51:03;;;;;;;13.73;7.68;;;;;;;3.21;50.87;96429.03;5020294;28;20117;-66
2022/11/27 02:53:32;;;;;;;13.15;7.63;;;;;;;3.21;50.93;96436.94;5037753;28;20107;-66
2022/11/27 02:55:57;;;;;;;;;;;;;;;3.40;53.13;96425.91;5040726;28;20132;-66
2022/11/27 02:58:24;;;;;;;15.93;8.93;;;;;;;3.20;50.01;96431.78;5040709;28;19992;-66
2022/11/27 03:00:49;;;;;;;13.25;9.10;;;;;;;3.01;50.98;96430.47;5021260;28;20441;-67
2022/11/27 03:03:18;;;;;;;15.57;8.98;;;;;;;2.94;49.30;96427.44;5040243;28;20060;-66
2022/11/27 03:05:44;;;;;;;10.65;6.93;;;;;;;3.23;51.00;96421.84;5039116;28;20567;-66
2022/11/27 03:08:20;;;;;;;15.55;8.65;;;;;;;3.12;50.75;96417.38;5036693;28;20192;-67
2022/11/27 03:10:53;;;;;;;12.85;7.25;;;;;;;3.35;51.01;96419.28;5039334;28;20101;-67
2022/11/27 03:13:18;;;;;;;17.75;9.57;;;;;;;3.30;50.37;96416.97;5023144;28;20121;-66
2022/11/27 03:16:13;;;;;;;13.57;9.15;;;;;;;3.28;49.78;96424.16;5038597;28;20092;-66
2022/11/27 03:18:46;;;;;;;16.40;8.45;;;;;;;3.30;48.87;96414.34;5038574;28;20654;-66
2022/11/27 03:21:32;;;;;;;14.32;8.25;;;;;;;3.20;48.77;96410.72;5038876;28;20127;-66
2022/11/27 03:23:57;;;;;;;13.27;6.95;;;;;;;3.08;50.97;96405.41;5041377;28;20470;-66
2022/11/27 03:26:23;;;;;;;15.48;8.40;;;;;;;3.31;49.15;96397.63;5039459;28;20108;-66
2022/11/27 03:28:48;;;;;;;16.60;9.30;;;;;;;3.40;50.30;96389.03;5040483;28;20084;-68
2022/11/27 03:31:13;;;;;;;13.73;8.02;;;;;;;3.05;50.54;96387.19;5039427;28;20623;-67
2022/11/27 03:33:39;;;;;;;12.90;8.07;;;;;;;2.92;52.27;96379.34;5038424;28;20097;-67
2022/11/27 03:36:18;;;;;;;18.42;9.30;;;;;;;3.27;49.65;96383.00;5040233;28;20577;-66
2022/11/27 03:38:44;;;;;;;13.52;7.68;;;;;;;3.24;53.30;96378.81;5039961;28;20121;-66
2022/11/27 03:41:48;;;;;;;12.65;8.82;;;;;;;3.39;49.17;96381.25;5022744;28;20101;-67
2022/11/27 03:44:33;;;;;;;13.55;8.30;;;;;;;3.51;50.74;96384.81;5033395;28;20372;-68
2022/11/27 03:47:15;;;;;;;13.57;8.73;;;;;;;3.46;48.32;96381.66;5038807;28;20602;-66
2022/11/27 03:49:43;;;;;;;14.50;8.40;;;;;;;3.28;48.44;96388.16;5036342;28;20305;-67
2022/11/27 03:52:14;;;;;;;14.60;9.05;;;;;;;3.47;48.85;96383.38;5038780;28;20101;-67
2022/11/27 03:54:47;;;;;;;14.63;9.13;;;;;;;3.27;50.72;96380.38;5039878;28;20127;-65
2022/11/27 03:57:18;;;;;;;15.07;9.30;;;;;;;3.47;48.24;96373.66;5039128;28;20501;-67
2022/11/27 03:59:44;;;;;;;17.20;9.45;;;;;;;3.43;50.27;96366.91;5030125;28;20526;-67
2022/11/27 04:02:13;;;;;;;14.07;9.93;;;;;;;3.14;51.28;96368.09;5021549;28;20435;-66
2022/11/27 04:04:38;;;;;;;19.45;9.60;;;;;;;3.31;50.61;96366.03;5040333;28;20427;-67
2022/11/27 04:07:04;;;;;;;13.80;9.30;;;;;;;3.21;53.38;96354.50;5040766;28;20065;-67
2022/11/27 04:09:29;;;;;;;16.08;9.77;;;;;;;3.35;48.80;96351.69;5038007;28;20105;-67
2022/11/27 04:11:55;;;;;;;15.73;9.25;;;;;;;3.41;50.03;96359.13;5040502;28;20089;-65
2022/11/27 04:14:20;;;;;;;14.88;9.68;;;;;;;3.40;49.01;96357.44;5039526;28;20112;-66
2022/11/27 04:16:45;;;;;;;16.40;9.07;;;;;;;3.34;49.16;96357.91;5038988;28;20077;-67
2022/11/27 04:19:11;;;;;;;16.65;8.77;;;;;;;3.22;51.93;96356.19;5041080;28;20185;-66
2022/11/27 04:21:36;;;;;;;15.52;9.65;;;;;;;3.10;50.29;96353.50;5039605;28;20099;-67
2022/11/27 04:24:02;;;;;;;21.23;9.80;;;;;;;3.01;51.73;96362.06;5040667;28;20081;-66
2022/11/27 04:26:27;;;;;;;14.77;8.85;;;;;;;3.06;51.14;96354.66;5039636;28;20109;-66
2022/11/27 04:28:53;;;;;;;15.13;8.80;;;;;;;3.11;51.43;96346.44;5040692;28;20138;-66
2022/11/27 04:31:18;;;;;;;15.25;8.73;;;;;;;2.96;51.87;96343.97;5037134;28;20465;-67
2022/11/27 04:33:43;;;;;;;17.13;9.13;;;;;;;3.13;52.20;96344.56;5040679;28;20127;-68
2022/11/27 04:36:09;;;;;;;17.35;9.43;;;;;;;3.28;50.55;96358.38;5039866;28;20089;-66
2022/11/27 04:38:34;;;;;;;14.23;8.65;;;;;;;3.00;51.50;96355.97;5040200;28;20547;-66
2022/11/27 04:41:00;;;;;;;13.65;8.95;;;;;;;2.86;51.58;96361.41;5039592;28;20108;-67
2022/11/27 04:43:25;;;;;;;16.15;8.52;;;;;;;3.13;50.82;96361.16;5040849;28;20647;-67
2022/11/27 04:45:50;;;;;;;16.20;8.27;;;;;;;3.28;50.42;96358.38;5041649;28;20097;-67
2022/11/27 04:48:16;;;;;;;18.20;8.63;;;;;;;3.17;51.11;96357.34;5043760;28;20100;-67
2022/11/27 04:50:41;;;;;;;14.77;8.00;;;;;;;3.22;50.60;96350.91;5043407;28;20105;-67
2022/11/27 04:53:07;;;;;;;14.18;8.10;;;;;;;3.38;50.76;96348.00;5042190;28;20598;-65
2022/11/27 04:55:33;;;;;;;19.92;8.38;;;;;;;3.19;51.96;96348.53;5044487;28;20147;-67
2022/11/27 04:57:58;;;;;;;16.25;7.68;;;;;;;3.52;50.77;96349.63;5040819;28;20390;-67
2022/11/27 05:00:24;;;;;;;13.27;7.35;;;;;;;3.61;50.54;96341.00;5044218;28;20456;-66
2022/11/27 05:02:49;;;;;;;13.35;7.75;;;;;;;3.60;50.64;96344.59;5042487;28;20520;-66
2022/11/27 05:05:16;;;;;;;18.20;8.32;;;;;;;3.54;50.96;96342.47;5043768;28;20154;-65
2022/11/27 05:07:41;;;;;;;14.18;8.23;;;;;;;3.30;52.72;96340.66;5042258;28;20132;-67
2022/11/27 05:10:07;;;;;;;13.60;8.07;;;;;;;3.64;52.07;96339.97;5041403;28;20121;-67
2022/11/27 05:12:32;;;;;;;15.85;7.70;;;;;;;4.04;48.82;96338.69;5042967;28;20371;-66
2022/11/27 05:14:58;;;;;;;15.35;8.10;;;;;;;3.71;50.22;96338.53;5043476;28;20268;-67
2022/11/27 05:17:23;;;;;;;12.07;6.78;;;;;;;3.59;50.63;96334.19;5042666;28;20097;-67
2022/11/27 05:19:49;;;;;;;13.93;8.00;;;;;;;3.89;50.33;96330.19;5046272;28;20077;-66
2022/11/27 05:22:14;;;;;;;14.70;7.75;;;;;;;3.77;51.08;96337.22;5042600;28;20106;-66
2022/11/27 05:24:39;;;;;;;11.82;7.38;;;;;;;4.01;50.19;96328.41;5043382;28;20096;-67
2022/11/27 05:27:05;;;;;;;14.82;7.53;;;;;;;3.85;50.79;96331.38;5043044;28;20078;-67
2022/11/27 05:29:30;;;;;;;12.35;6.65;;;;;;;4.13;49.93;96331.88;5043256;28;20435;-66
2022/11/27 05:31:56;;;;;;;12.80;7.30;;;;;;;4.26;49.63;96331.75;5041580;28;20462;-65
2022/11/27 05:34:21;;;;;;;12.40;8.10;;;;;;;4.15;49.84;96320.25;5043000;28;20105;-67
2022/11/27 05:36:47;;;;;;;13.27;7.90;;;;;;;3.94;51.09;96310.41;5038341;28;20119;-66
2022/11/27 05:39:12;;;;;;;16.30;8.20;;;;;;;3.74;50.83;96308.50;5042233;28;20124;-66
2022/11/27 05:41:39;;;;;;;15.23;7.82;;;;;;;3.86;49.63;96301.44;5041946;28;20105;-67
2022/11/27 05:44:05;;;;;;;14.55;8.43;;;;;;;3.66;51.75;96304.66;5041193;28;20160;-66
2022/11/27 05:46:30;;;;;;;16.45;7.97;;;;;;;3.88;50.91;96305.63;5040059;28;20158;-66
2022/11/27 05:48:55;;;;;;;16.13;8.82;;;;;;;3.89;51.19;96303.84;5041900;28;20533;-66
2022/11/27 05:51:21;;;;;;;15.45;8.18;;;;;;;3.95;52.28;96295.47;5042006;28;20573;-67
2022/11/27 05:53:46;;;;;;;12.93;8.20;;;;;;;3.76;51.86;96288.97;5041625;28;20104;-67
2022/11/27 05:56:14;;;;;;;14.40;8.38;;;;;;;3.51;52.90;96290.84;5041999;28;20080;-67
2022/11/27 05:58:40;;;;;;;14.68;8.07;;;;;;;3.25;53.83;96288.38;5042601;28;20175;-67
2022/11/27 06:01:05;;;;;;;13.85;8.38;;;;;;;3.55;50.91;96283.56;5041413;28;20117;-65
2022/11/27 06:03:31;;;;;;;14.32;7.65;;;;;;;3.74;51.16;96285.59;5043242;28;20164;-65
2022/11/27 06:05:56;;;;;;;12.63;8.45;;;;;;;3.65;51.20;96281.91;5042108;28;20736;-68
2022/11/27 06:08:22;;;;;;;13.05;8.18;;;;;;;3.80;51.16;96273.75;5041267;28;20085;-66
2022/11/27 06:10:47;;;;;;;13.82;8.27;;;;;;;3.76;51.22;96272.31;5041561;28;20094;-66
2022/11/27 06:13:12;;;;;;;12.45;7.50;;;;;;;3.63;51.17;96273.28;5041064;28;20105;-66
2022/11/27 06:15:38;;;;;;;14.07;6.97;;;;;;;3.97;51.12;96267.19;5041788;28;20131;-66
2022/11/27 06:18:03;;;;;;;12.95;7.10;;;;;;;3.41;53.11;96269.63;5043060;28;20093;-68
2022/11/27 06:20:29;;;;;;;12.25;7.07;;;;;;;3.65;51.47;96270.53;5042685;28;20347;-67
2022/11/27 06:22:55;;;;;;;12.10;6.68;;;;;;;3.70;51.63;96268.38;5042160;28;20093;-66
2022/11/27 06:25:20;;;;;;;10.57;6.90;;;;;;;3.96;51.12;96273.41;5041464;28;20135;-66
2022/11/27 06:27:45;;;;;;;9.82;6.47;;;;;;;3.34;51.43;96276.31;5042572;28;20776;-67
2022/11/27 06:30:11;;;;;;;12.82;7.32;;;;;;;3.64;50.86;96280.22;5041258;28;20608;-67
2022/11/27 06:32:37;;;;;;;15.10;6.93;;;;;;;3.81;50.07;96263.09;5042540;28;20151;-66
2022/11/27 06:35:02;;;;;;;16.42;8.05;;;;;;;3.17;51.16;96270.50;5041724;28;20101;-67
2022/11/27 06:37:28;;;;;;;11.23;7.40;;;;;;;3.63;50.94;96261.91;5041978;28;20101;-66
2022/11/27 06:39:53;;;;;;;16.05;7.45;;;;;;;3.53;51.73;96248.59;5041646;28;20129;-66
2022/11/27 06:42:18;;;;;;;10.90;6.63;;;;;;;3.77;51.49;96250.28;5042094;28;20086;-67
2022/11/27 06:44:45;;;;;;;13.38;6.75;;;;;;;3.77;49.82;96251.13;5040843;28;20085;-66
2022/11/27 06:47:11;;;;;;;11.73;6.70;;;;;;;3.83;50.37;96247.19;5042201;28;20099;-67
2022/11/27 06:49:36;;;;;;;13.93;6.35;;;;;;;3.90;51.66;96248.38;5040249;28;20611;-66
2022/11/27 06:52:01;;;;;;;9.93;6.43;;;;;;;3.85;51.55;96247.06;5042341;28;20159;-66
2022/11/27 06:54:27;;;;;;;14.25;7.22;;;;;;;3.79;50.47;96243.97;5040657;28;20215;-67
2022/11/27 06:56:52;;;;;;;10.73;6.10;;;;;;;3.28;54.63;96247.81;5040027;28;20097;-67
2022/11/27 06:59:18;;;;;;;10.07;5.97;;;;;;;3.66;50.88;96245.88;5040787;28;20080;-66
2022/11/27 07:01:44;;;;;;;12.38;6.45;;;;;;;3.35;51.71;96249.03;5041134;28;20180;-68
2022/11/27 07:04:10;;;;;;;11.25;6.25;;;;;;;3.56;52.40;96245.75;5042018;28;20073;-66
2022/11/27 07:06:35;;;;;;;10.68;6.30;;;;;;;3.49;51.38;96229.59;5040224;28;20200;-67
2022/11/27 07:09:01;;;;;;;10.18;5.88;;;;;;;3.73;51.95;96236.53;5040344;28;20534;-67
2022/11/27 07:11:27;;;;;;;9.85;6.05;;;;;;;3.42;52.14;96236.25;5041798;28;20081;-67
2022/11/27 07:13:54;;;;;;;12.05;6.43;;;;;;;3.64;50.75;96226.72;5040639;28;20854;-66
2022/11/27 07:16:19;;;;;;;11.18;6.25;;;;;;;3.74;51.41;96218.94;5040331;28;20127;-66
2022/11/27 07:18:49;;;;;;;10.27;6.43;;;;;;;3.81;50.86;96206.94;5040051;28;20113;-66
2022/11/27 07:21:15;;;;;;;11.43;6.53;;;;;;;3.94;50.24;96202.41;5040388;28;20329;-66
2022/11/27 07:23:40;;;;;;;12.23;5.82;;;;;;;3.72;52.35;96212.94;5041584;28;20573;-66
2022/11/27 07:26:09;;;;;;;10.55;6.10;;;;;;;3.83;50.10;96220.00;5038677;28;20457;-67
2022/11/27 07:28:35;;;;;;;10.52;6.68;;;;;;;4.13;48.97;96218.53;5041585;28;20458;-67
2022/11/27 07:31:00;;;;;;;8.80;5.60;;;;;;;3.73;50.76;96225.16;5039794;28;20104;-66
2022/11/27 07:33:26;;;;;;;9.88;5.68;;;;;;;4.14;49.80;96226.31;5040526;28;20485;-66
2022/11/27 07:36:09;;;;;;;10.13;5.95;;;;;;;4.17;49.23;96227.88;5040239;28;20081;-67
2022/11/27 07:38:35;;;;;;;12.30;5.90;;;;;;;4.31;48.51;96216.22;5039187;28;20335;-67
2022/11/27 07:41:01;;;;;;;11.63;6.07;;;;;;;4.31;48.50;96218.84;5037200;28;20163;-67
2022/11/27 07:43:27;;;;;;;9.40;6.03;;;;;;;3.86;50.54;96223.25;5041035;28;20073;-66
2022/11/27 07:45:53;;;;;;;12.02;6.07;;;;;;;3.85;51.40;96216.31;5039402;28;20129;-65
2022/11/27 07:48:18;;;;;;;11.05;6.68;;;;;;;4.20;49.24;96206.53;5040511;28;20096;-66
2022/11/27 07:50:43;;;;;;;10.85;6.30;;;;;;;4.62;47.89;96211.09;5036699;28;20108;-68
2022/11/27 07:53:09;;;;;;;9.10;5.28;;;;;;;3.93;51.72;96200.72;5037888;28;20648;-67
2022/11/27 07:55:37;;;;;;;8.38;5.60;;;;;;;4.14;51.21;96213.16;5041101;28;20093;-67
2022/11/27 07:58:02;;;;;;;8.73;5.65;;;;;;;4.45;49.69;96210.69;5037987;28;20126;-67
2022/11/27 08:00:28;;;;;;;10.95;6.10;;;;;;;4.06;50.52;96203.19;5041355;28;20078;-66
2022/11/27 08:02:53;;;;;;;8.52;5.00;;;;;;;4.24;51.62;96201.84;5038876;28;20128;-68
2022/11/27 08:05:19;;;;;;;10.38;5.50;;;;;;;4.24;50.10;96186.03;5039572;28;20105;-66
2022/11/27 08:07:44;;;;;;;14.00;5.68;;;;;;;4.55;48.96;96196.72;5041077;28;20081;-67
2022/11/27 08:10:09;;;;;;;8.50;5.65;;;;;;;4.62;48.67;96197.91;5038609;28;20109;-66
2022/11/27 08:12:35;;;;;;;9.98;5.50;;;;;;;4.62;48.53;96192.63;5040104;28;20132;-66
2022/11/27 08:15:03;;;;;;;11.85;5.40;;;;;;;4.63;48.19;96190.84;5040776;28;20226;-68
2022/11/27 08:17:28;;;;;;;10.77;5.70;;;;;;;4.68;49.38;96193.91;5036623;28;20107;-66
2022/11/27 08:19:54;;;;;;;6.95;4.63;;;;;;;4.52;49.17;96186.44;5040841;28;20085;-65
2022/11/27 08:22:19;;;;;;;9.52;5.07;;;;;;;4.73;48.90;96185.63;5043604;28;20123;-67
2022/11/27 08:24:46;;;;;;;8.70;5.28;;;;;;;4.67;47.89;96192.25;5043027;28;20319;-66
2022/11/27 08:27:12;;;;;;;8.80;5.22;;;;;;;4.87;48.07;96187.97;5040661;28;20623;-66
2022/11/27 08:29:37;;;;;;;9.52;5.22;;;;;;;4.51;49.82;96188.25;5044565;28;20093;-66
2022/11/27 08:32:03;;;;;;;9.07;5.40;;;;;;;4.50;49.89;96186.56;5042245;28;21419;-66
2022/11/27 08:34:29;;;;;;;8.88;5.35;;;;;;;4.50;50.58;96186.56;5043307;28;20140;-66
2022/11/27 08:36:54;;;;;;;9.68;5.10;;;;;;;4.47;50.23;96184.19;5043067;28;20139;-66
2022/11/27 08:39:19;;;;;;;9.40;5.60;;;;;;;4.67;48.47;96186.97;5043376;28;20125;-66
2022/11/27 08:41:45;;;;;;;8.13;4.90;;;;;;;4.50;50.44;96185.72;5043260;28;20093;-67
2022/11/27 08:44:10;;;;;;;8.20;5.15;;;;;;;4.71;48.25;96183.97;5043587;28;20524;-67
2022/11/27 08:46:36;;;;;;;10.05;5.10;;;;;;;4.83;50.34;96182.09;5041305;28;20205;-65
2022/11/27 08:49:01;;;;;;;8.68;4.97;;;;;;;4.39;49.74;96190.06;5040900;28;20108;-66
2022/11/27 08:51:27;;;;;;;10.77;5.93;;;;;;;4.64;49.36;96184.59;5044482;28;20089;-67
2022/11/27 08:53:52;;;;;;;8.85;5.05;;;;;;;4.56;47.99;96175.50;5041539;28;20120;-66
2022/11/27 08:56:20;;;;;;;7.95;4.68;;;;;;;4.91;49.16;96192.03;5042658;28;20073;-66
2022/11/27 08:58:46;;;;;;;9.75;5.10;;;;;;;5.10;47.79;96179.94;5043819;28;20593;-66
2022/11/27 09:01:28;;;;;;;9.32;5.18;;;;;;;4.77;49.78;96179.13;5042824;28;20093;-66
2022/11/27 09:03:53;;;;;;;11.40;5.90;;;;;;;4.92;47.47;96169.94;5044015;28;20092;-67
2022/11/27 09:06:21;;;;;;;10.65;5.55;;;;;;;4.87;48.36;96160.75;5042635;28;20106;-65
2022/11/27 09:08:46;;;;;;;10.13;5.20;;;;;;;4.93;47.38;96154.97;5041676;28;20592;-67
2022/11/27 09:11:12;;;;;;;10.38;5.60;;;;;;;5.16;46.64;96155.66;5042716;28;20093;-66
2022/11/27 09:13:39;;;;;;;9.88;5.63;;;;;;;5.09;47.18;96151.88;5043727;28;20113;-66
2022/11/27 09:16:05;;;;;;;12.13;5.13;;;;;;;5.54;46.34;96147.25;5041501;28;20089;-66
2022/11/27 09:18:30;;;;;;;9.40;4.90;;;;;;;5.79;45.33;96150.38;5043848;28;20608;-67
2022/11/27 09:20:57;;;;;;;9.90;5.43;;;;;;;5.81;45.18;96140.50;5042861;28;20085;-67
2022/11/27 09:23:23;;;;;;;10.52;5.47;;;;;;;5.81;45.05;96137.84;5042734;28;20553;-66
2022/11/27 09:25:48;;;;;;;7.65;4.68;;;;;;;5.79;47.53;96139.81;5043242;28;20104;-66
2022/11/27 09:28:14;;;;;;;14.40;5.15;;;;;;;5.99;45.60;96135.41;5043129;28;20135;-66
2022/11/27 09:30:39;;;;;;;8.05;4.82;;;;;;;5.82;45.71;96142.19;5043175;28;20139;-65
2022/11/27 09:33:04;;;;;;;8.55;4.70;;;;;;;5.71;47.70;96130.75;5041986;28;20116;-66
2022/11/27 09:35:30;;;;;;;8.90;4.65;;;;;;;5.78;45.12;96127.56;5042574;28;20151;-66
2022/11/27 09:37:55;;;;;;;6.75;4.38;;;;;;;6.16;44.69;96120.69;5042179;28;20445;-67
2022/11/27 09:40:21;;;;;;;10.57;4.68;;;;;;;5.96;46.37;96117.19;5043122;28;20088;-65
2022/11/27 09:42:53;;;;;;;8.40;4.63;;;;;;;5.95;45.37;96118.16;5041347;28;20098;-66
2022/11/27 09:45:18;;;;;;;11.98;5.30;;;;;;;6.32;44.00;96106.09;5025379;28;20590;-66
2022/11/27 09:47:47;;;;;;;8.25;4.53;;;;;;;6.30;43.99;96108.88;5041658;28;20100;-65
2022/11/27 09:50:33;;;;;;;10.68;4.82;;;;;;;6.48;44.53;96101.09;5042231;28;20192;-66
2022/11/27 09:53:03;;;;;;;9.35;5.03;;;;;;;6.59;43.53;96105.41;5040015;28;20125;-65
2022/11/27 09:55:36;;;;;;;9.15;4.32;;;;;;;6.25;43.84;96109.28;5018811;28;20119;-66
2022/11/27 09:58:06;;;;;;;8.50;4.00;;;;;;;5.70;47.36;96100.00;5024745;28;20108;-65
2022/11/27 10:00:31;;;;;;;8.55;4.53;;;;;;;6.30;43.70;96092.16;5041356;28;20554;-65
2022/11/27 10:02:57;;;;;;;9.18;4.38;;;;;;;5.88;45.53;96095.88;5042170;28;20105;-65
2022/11/27 10:05:25;;;;;;;8.93;4.63;;;;;;;6.02;44.83;96078.78;5041384;28;20104;-67
2022/11/27 10:08:09;;;;;;;7.78;4.90;;;;;;;6.09;45.69;96069.34;5039086;28;20531;-67
2022/11/27 10:11:12;;;;;;;10.38;5.03;;;;;;;6.09;45.09;96058.75;5042717;28;20124;-66
2022/11/27 10:13:43;;;;;;;10.02;5.40;;;;;;;6.23;46.30;96065.44;5020508;28;20477;-65
2022/11/27 10:16:11;;;;;;;8.73;5.20;;;;;;;6.07;45.92;96071.28;5039881;28;20072;-67
2022/11/27 10:18:46;;;;;;;8.10;4.47;;;;;;;6.44;43.31;96075.03;5040643;28;20139;-66
2022/11/27 10:21:35;;;;;;;7.47;4.80;;;;;;;6.21;42.85;96089.38;5039474;28;20104;-65
2022/11/27 10:24:22;;;;;;;;;;;;;;;5.69;46.59;96090.44;5034129;28;20125;-67
2022/11/27 10:26:48;;;;;;;8.77;4.60;;;;;;;6.46;42.98;96075.72;5040177;28;19981;-66
2022/11/27 10:29:25;;;;;;;13.48;6.25;;;;;;;6.55;44.50;96072.25;5041843;28;20588;-65
2022/11/27 10:31:53;;;;;;;10.02;6.07;;;;;;;6.53;44.84;96081.31;5041001;28;20120;-67
2022/11/27 10:34:38;;;;;;;11.77;5.82;;;;;;;6.93;42.32;96069.66;5039893;28;20120;-67
2022/11/27 10:37:40;;;;;;;12.05;6.38;;;;;;;6.98;42.49;96066.59;5039302;28;20113;-66
2022/11/27 10:40:07;;;;;;;9.38;5.88;;;;;;;6.89;43.57;96061.19;5040729;28;20560;-66
2022/11/27 10:42:58;;;;;;;10.43;6.32;;;;;;;6.94;44.15;96049.34;5040328;28;20097;-65
2022/11/27 10:45:37;;;;;;;13.20;7.47;;;;;;;6.65;43.62;96040.50;5039535;28;20442;-67
2022/11/27 10:48:03;;;;;;;12.77;7.00;;;;;;;6.84;45.10;96031.66;5041004;28;20730;-67
2022/11/27 10:50:28;;;;;;;10.18;5.95;;;;;;;6.97;43.26;96027.88;5038962;28;20215;-66
2022/11/27 10:52:56;;;;;;;11.40;5.85;;;;;;;7.06;43.24;96023.50;5038725;28;20472;-66
2022/11/27 10:55:39;;;;;;;9.95;5.05;;;;;;;6.92;43.64;96025.66;5034340;28;20081;-66
2022/11/27 10:58:14;;;;;;;8.57;4.95;;;;;;;6.85;41.21;96032.50;5041764;28;20101;-67
2022/11/27 11:00:39;;;;;;;7.82;4.65;;;;;;;7.18;41.68;96029.47;5039144;28;20438;-66
2022/11/27 11:03:05;;;;;;;10.80;6.53;;;;;;;7.25;42.26;96036.66;5040334;28;20105;-66
2022/11/27 11:05:31;;;;;;;13.27;6.35;;;;;;;7.22;43.19;96020.25;5039685;28;20357;-66
2022/11/27 11:08:03;;;;;;;9.63;5.20;;;;;;;7.45;40.75;96015.38;5040327;28;20081;-66
2022/11/27 11:10:34;;;;;;;10.68;5.82;;;;;;;7.00;41.74;96016.97;5038235;28;20117;-66
2022/11/27 11:13:15;;;;;;;10.73;5.70;;;;;;;7.18;40.75;96005.63;5040877;28;20468;-65
2022/11/27 11:15:56;;;;;;;10.95;6.70;;;;;;;6.97;43.65;96007.53;5022703;28;20617;-65
2022/11/27 11:18:27;;;;;;;8.50;4.70;;;;;;;7.02;40.83;96023.81;5040483;28;20117;-67
2022/11/27 11:20:54;;;;;;;11.82;7.50;;;;;;;5.63;44.24;96040.75;5038346;28;20085;-67
2022/11/27 11:23:29;;;;;;;12.23;7.03;;;;;;;5.91;44.50;96029.53;5037568;28;20445;-66
2022/11/27 11:25:56;;;;;;;11.30;5.38;;;;;;;6.45;43.34;96019.34;5037950;28;20242;-67
2022/11/27 11:28:21;;;;;;;11.13;6.97;;;;;;;6.67;42.60;96016.53;5041330;28;20089;-67
2022/11/27 11:31:13;;;;;;;9.45;4.28;;;;;;;7.10;42.24;96009.00;5040097;28;20399;-66
2022/11/27 11:33:53;;;;;;;10.68;6.50;;;;;;;6.85;42.38;96019.28;5036308;28;20110;-66
2022/11/27 11:36:18;;;;;;;11.48;6.60;;;;;;;6.55;45.16;96007.94;5038300;28;20080;-65
2022/11/27 11:38:44;;;;;;;8.23;4.95;;;;;;;6.94;43.62;96002.50;5022407;28;20129;-67
2022/11/27 11:41:11;;;;;;;8.43;4.53;;;;;;;6.83;41.90;96002.72;5038766;28;20204;-65
2022/11/27 11:43:37;;;;;;;9.82;5.50;;;;;;;6.83;41.31;95992.13;5037912;28;20538;-65